sim
Sign-in with your pilot id or email,
or register
Callsign
Passwort

Schedule Details

Flight Number: DLH1944 (1)
Departure: Munich Airport (EDDM) at 14:05
Arrival: Genoa Cristoforo Colombo Airport (LIMJ) at 15:15
Route: Lufthansa Passenger Schedule. Enter filed route here before submitting Pirep.

Weather Information
Getting current METAR information for EDDM 010220Z 00000KT 0800 R08L/0350N R08R/0700N FG NSC 04/03 Q1010 BECMG 0500 BKN001
Getting current METAR information for LIMJ 010220Z VRB01KT 9999 SCT028 18/15 Q1010

Schedule Frequency

Route Map